^^
Meteo Knjazevac Station Historical Data
Daily Summary for March 30, 2021 Units:  Both    English   Metric
Daily Weekly Monthly Yearly Custom
  High: Low: Average:
Temperature: 42.4 °F /  5.8 °C 37.8 °F /  3.2 °C 39.8 °F /  4.3 °C
Dew Point: 41.4 °F /  5.2 °C 37.6 °F /  3.1 °C 39.4 °F /  4.1 °C
Humidity: 99% 95% 98%
Wind Speed: 2mph /  3.2km/h - 0.9mph /  1.4km/h
Wind Gust: 8mph /  12.9km/h - -
Wind- - South
Pressure: 29.67 in /  1004.6 hPa 29.63 in /  1003.3 hPa -
Precipitation: 0.33 in /  8.38 mm    
Historical Graphs
 
 
Tabular Data for March 30, 2021
Time Temperature Dew Point Pressure Wind Wind Speed Wind Gust Humidity Rainfall Rate (Hourly) solar Conditions
00:00 42.4 °F /  5.8 °C 41.4 °F /  5.2 °C 29.65in /  1003.9hPa Calm   3mph /  4.8km/h 96% 0.01in /  0.25mm 0 W/m2
00:10 42.3 °F /  5.7 °C 41.2 °F /  5.1 °C 29.65in /  1003.9hPa SSE 1mph /  1.6km/h 3mph /  4.8km/h 96% 0.01in /  0.25mm 0 W/m2
00:20 42.3 °F /  5.7 °C 40.9 °F /  4.9 °C 29.65in /  1003.9hPa SE 1mph /  1.6km/h 3mph /  4.8km/h 95% 0.00in /  0mm 0 W/m2
00:30 42.1 °F /  5.6 °C 41 °F /  5 °C 29.65in /  1003.9hPa SSW 1mph /  1.6km/h 3mph /  4.8km/h 96% 0.00in /  0mm 0 W/m2
00:40 41.9 °F /  5.5 °C 40.8 °F /  4.9 °C 29.64in /  1003.6hPa Calm   2mph /  3.2km/h 96% 0.00in /  0mm 0 W/m2
00:50 41.9 °F /  5.5 °C 40.8 °F /  4.9 °C 29.64in /  1003.6hPa Calm   1mph /  1.6km/h 96% 0.00in /  0mm 0 W/m2
01:00 41.7 °F /  5.4 °C 40.7 °F /  4.8 °C 29.64in /  1003.6hPa Calm   2mph /  3.2km/h 96% 0.00in /  0mm 0 W/m2
01:10 41.5 °F /  5.3 °C 41 °F /  5 °C 29.64in /  1003.6hPa Calm   2mph /  3.2km/h 98% 0.01in /  0.25mm 0 W/m2
01:20 41.4 °F /  5.2 °C 40.8 °F /  4.9 °C 29.63in /  1003.3hPa Calm   3mph /  4.8km/h 98% 0.01in /  0.25mm 0 W/m2
01:30 41.4 °F /  5.2 °C 40.8 °F /  4.9 °C 29.64in /  1003.6hPa WNW 1mph /  1.6km/h 4mph /  6.4km/h 98% 0.02in /  0.51mm 0 W/m2
01:40 41.2 °F /  5.1 °C 40.7 °F /  4.8 °C 29.63in /  1003.3hPa Calm   3mph /  4.8km/h 98% 0.03in /  0.76mm 0 W/m2
01:50 41.2 °F /  5.1 °C 40.9 °F /  4.9 °C 29.63in /  1003.3hPa SSW 1mph /  1.6km/h 2mph /  3.2km/h 99% 0.02in /  0.51mm 0 W/m2
02:00 41 °F /  5 °C 40.7 °F /  4.8 °C 29.63in /  1003.3hPa SW 2mph /  3.2km/h 3mph /  4.8km/h 99% 0.01in /  0.25mm 0 W/m2
02:10 40.8 °F /  4.9 °C 40.6 °F /  4.8 °C 29.63in /  1003.3hPa WSW 2mph /  3.2km/h 6mph /  9.7km/h 99% 0.01in /  0.25mm 0 W/m2
02:20 40.6 °F /  4.8 °C 40.4 °F /  4.7 °C 29.63in /  1003.3hPa West 2mph /  3.2km/h 6mph /  9.7km/h 99% 0.01in /  0.25mm 0 W/m2
02:30 40.5 °F /  4.7 °C 40.2 °F /  4.6 °C 29.63in /  1003.3hPa West 2mph /  3.2km/h 6mph /  9.7km/h 99% 0.01in /  0.25mm 0 W/m2
02:40 40.3 °F /  4.6 °C 40 °F /  4.4 °C 29.64in /  1003.6hPa West 2mph /  3.2km/h 7mph /  11.3km/h 99% 0.01in /  0.25mm 0 W/m2
02:50 40.3 °F /  4.6 °C 40 °F /  4.4 °C 29.64in /  1003.6hPa Calm   5mph /  8km/h 99% 0.01in /  0.25mm 0 W/m2
03:00 40.1 °F /  4.5 °C 39.8 °F /  4.3 °C 29.64in /  1003.6hPa SSW 1mph /  1.6km/h 2mph /  3.2km/h 99% 0.02in /  0.51mm 0 W/m2
03:10 40.1 °F /  4.5 °C 39.8 °F /  4.3 °C 29.64in /  1003.6hPa SSW 2mph /  3.2km/h 5mph /  8km/h 99% 0.02in /  0.51mm 0 W/m2
03:20 40.1 °F /  4.5 °C 39.8 °F /  4.3 °C 29.64in /  1003.6hPa SSW 1mph /  1.6km/h 5mph /  8km/h 99% 0.02in /  0.51mm 0 W/m2
03:30 39.7 °F /  4.3 °C 39.5 °F /  4.2 °C 29.64in /  1003.6hPa SSW 2mph /  3.2km/h 8mph /  12.9km/h 99% 0.02in /  0.51mm 0 W/m2
03:40 39.6 °F /  4.2 °C 39.3 °F /  4.1 °C 29.64in /  1003.6hPa SSW 1mph /  1.6km/h 6mph /  9.7km/h 99% 0.01in /  0.25mm 0 W/m2
03:50 39.4 °F /  4.1 °C 39.1 °F /  3.9 °C 29.64in /  1003.6hPa SSW 1mph /  1.6km/h 3mph /  4.8km/h 99% 0.01in /  0.25mm 0 W/m2
04:00 39.2 °F /  4 °C 38.7 °F /  3.7 °C 29.64in /  1003.6hPa South 1mph /  1.6km/h 4mph /  6.4km/h 98% 0.00in /  0mm 0 W/m2
04:10 39 °F /  3.9 °C 38.8 °F /  3.8 °C 29.64in /  1003.6hPa South 1mph /  1.6km/h 3mph /  4.8km/h 99% 0.00in /  0mm 0 W/m2
04:20 38.8 °F /  3.8 °C 38.6 °F /  3.7 °C 29.64in /  1003.6hPa South 1mph /  1.6km/h 4mph /  6.4km/h 99% 0.01in /  0.25mm 0 W/m2
04:30 38.7 °F /  3.7 °C 38.4 °F /  3.6 °C 29.64in /  1003.6hPa SSW 1mph /  1.6km/h 4mph /  6.4km/h 99% 0.01in /  0.25mm 0 W/m2
04:40 38.5 °F /  3.6 °C 38.2 °F /  3.4 °C 29.64in /  1003.6hPa Calm   3mph /  4.8km/h 99% 0.01in /  0.25mm 0 W/m2
04:50 38.5 °F /  3.6 °C 38.2 °F /  3.4 °C 29.64in /  1003.6hPa Calm   3mph /  4.8km/h 99% 0.01in /  0.25mm 0 W/m2
05:00 38.3 °F /  3.5 °C 38 °F /  3.3 °C 29.64in /  1003.6hPa SSE 2mph /  3.2km/h 4mph /  6.4km/h 99% 0.01in /  0.25mm 0 W/m2
05:10 38.1 °F /  3.4 °C 37.9 °F /  3.3 °C 29.64in /  1003.6hPa SE 1mph /  1.6km/h 5mph /  8km/h 99% 0.01in /  0.25mm 0 W/m2
05:20 38.1 °F /  3.4 °C 37.9 °F /  3.3 °C 29.64in /  1003.6hPa Calm   2mph /  3.2km/h 99% 0.00in /  0mm 0 W/m2
05:30 38.1 °F /  3.4 °C 37.9 °F /  3.3 °C 29.64in /  1003.6hPa SSE 1mph /  1.6km/h 4mph /  6.4km/h 99% 0.00in /  0mm 0 W/m2
05:40 37.9 °F /  3.3 °C 37.7 °F /  3.2 °C 29.65in /  1003.9hPa SE 1mph /  1.6km/h 2mph /  3.2km/h 99% 0.00in /  0mm 0 W/m2
05:50 37.9 °F /  3.3 °C 37.7 °F /  3.2 °C 29.65in /  1003.9hPa Calm   3mph /  4.8km/h 99% 0.00in /  0mm 0 W/m2
06:00 37.9 °F /  3.3 °C 37.7 °F /  3.2 °C 29.65in /  1003.9hPa Calm   2mph /  3.2km/h 99% 0.00in /  0mm 0 W/m2
06:10 37.9 °F /  3.3 °C 37.7 °F /  3.2 °C 29.65in /  1003.9hPa Calm   3mph /  4.8km/h 99% 0.00in /  0mm 0 W/m2
06:20 37.9 °F /  3.3 °C 37.7 °F /  3.2 °C 29.66in /  1004.3hPa SSE 1mph /  1.6km/h 5mph /  8km/h 99% 0.00in /  0mm 0 W/m2
06:30 37.8 °F /  3.2 °C 37.6 °F /  3.1 °C 29.66in /  1004.3hPa SSE 2mph /  3.2km/h 6mph /  9.7km/h 99% 0.00in /  0mm 0 W/m2
06:40 37.9 °F /  3.3 °C 37.7 °F /  3.2 °C 29.66in /  1004.3hPa SE 2mph /  3.2km/h 5mph /  8km/h 99% 0.00in /  0mm 0 W/m2
06:50 37.9 °F /  3.3 °C 37.7 °F /  3.2 °C 29.67in /  1004.6hPa East 2mph /  3.2km/h 5mph /  8km/h 99% 0.00in /  0mm 0 W/m2
Knjazevac, Serbia
Compliments of Weather Underground - 2 mb